Time;durP1;ratioP1;P1;durP2;ratioP2;P2;SDS_P1;SDS_P2;PMS_P1;PMS_P2;Temp;Humidity;BMP_temperature;BMP_pressure;BME280_temperature;BME280_humidity;BME280_pressure;Samples;Min_cycle;Max_cycle;Signal;HPM_P1;HPM_P2
2023/12/19 00:00:12;;;;;;;32.33;20.40;;;;;;;4.97;100.00;102424.47;4899605;29;20024;-80
2023/12/19 00:02:39;;;;;;;30.55;18.10;;;;;;;4.98;100.00;102432.41;4900364;29;20484;-80
2023/12/19 00:05:09;;;;;;;35.85;19.95;;;;;;;4.99;100.00;102451.94;4896718;29;20067;-79
2023/12/19 00:07:35;;;;;;;34.50;19.55;;;;;;;4.99;100.00;102438.59;4915625;29;20024;-85
2023/12/19 00:10:00;;;;;;;31.67;19.50;;;;;;;5.00;100.00;102440.38;4883890;29;20031;-85
2023/12/19 00:12:25;;;;;;;33.53;18.27;;;;;;;5.01;100.00;102435.00;4885252;29;20031;-85
2023/12/19 00:14:51;;;;;;;36.25;19.48;;;;;;;5.03;100.00;102430.50;4892347;29;20028;-84
2023/12/19 00:17:16;;;;;;;36.50;20.65;;;;;;;5.04;100.00;102423.41;4902312;29;20028;-84
2023/12/19 00:19:41;;;;;;;34.20;19.08;;;;;;;5.05;100.00;102406.47;4882954;29;20032;-86
2023/12/19 00:22:07;;;;;;;34.47;19.10;;;;;;;5.06;100.00;102408.22;4898722;29;20115;-87
2023/12/19 00:24:32;;;;;;;37.15;19.52;;;;;;;5.07;100.00;102394.88;4878522;29;20033;-83
2023/12/19 00:26:57;;;;;;;45.75;22.13;;;;;;;5.08;100.00;102396.63;4882190;29;20035;-85
2023/12/19 00:29:23;;;;;;;32.83;19.13;;;;;;;5.09;100.00;102408.16;4887673;29;20087;-85
2023/12/19 00:31:48;;;;;;;34.88;18.73;;;;;;;5.12;100.00;102404.53;4883794;29;20029;-86
2023/12/19 00:34:15;;;;;;;35.22;19.63;;;;;;;5.13;100.00;102399.19;4900479;29;20036;-85
2023/12/19 00:36:40;;;;;;;36.50;17.55;;;;;;;5.13;100.00;102382.31;4879097;29;20096;-85
2023/12/19 00:39:05;;;;;;;32.63;17.58;;;;;;;5.14;100.00;102378.72;4904619;29;20043;-85
2023/12/19 00:41:31;;;;;;;41.17;19.92;;;;;;;5.15;100.00;102384.00;4904161;29;20055;-86
2023/12/19 00:43:56;;;;;;;38.15;19.50;;;;;;;5.15;100.00;102385.81;4879687;29;20127;-86
2023/12/19 00:46:22;;;;;;;33.63;18.33;;;;;;;5.13;100.00;102377.84;4891992;29;20067;-85
2023/12/19 00:48:47;;;;;;;40.00;20.92;;;;;;;5.14;100.00;102371.63;4886006;29;20029;-86
2023/12/19 00:51:13;;;;;;;34.28;18.80;;;;;;;5.13;100.00;102355.66;4893627;29;20028;-85
2023/12/19 00:53:39;;;;;;;35.72;18.95;;;;;;;5.14;100.00;102358.28;4882552;29;20025;-84
2023/12/19 00:56:11;;;;;;;34.30;19.27;;;;;;;5.16;100.00;102345.78;4878099;29;20093;-83
2023/12/19 00:58:37;;;;;;;32.53;20.35;;;;;;;5.15;100.00;102354.69;4895548;29;20436;-86
2023/12/19 01:01:04;;;;;;;36.78;19.55;;;;;;;5.13;100.00;102343.22;4896262;29;20115;-85
2023/12/19 01:03:29;;;;;;;32.72;19.15;;;;;;;5.14;100.00;102344.97;4903454;29;20420;-84
2023/12/19 01:05:55;;;;;;;37.22;20.70;;;;;;;5.13;100.00;102332.53;4882466;29;20111;-86
2023/12/19 01:08:20;;;;;;;40.40;20.33;;;;;;;5.14;100.00;102334.31;4884120;29;20032;-86
2023/12/19 01:10:45;;;;;;;36.35;20.15;;;;;;;5.14;100.00;102320.97;4884211;29;20068;-84
2023/12/19 01:13:11;;;;;;;36.75;20.08;;;;;;;5.16;100.00;102331.59;4899507;29;20064;-84
2023/12/19 01:15:36;;;;;;;35.72;19.90;;;;;;;5.17;100.00;102320.00;4898621;29;20119;-85
2023/12/19 01:18:01;;;;;;;33.42;18.17;;;;;;;5.17;100.00;102318.22;4905291;29;20032;-81
2023/12/19 01:20:27;;;;;;;36.58;19.85;;;;;;;5.16;100.00;102311.13;4890273;29;20035;-81
2023/12/19 01:22:52;;;;;;;34.80;19.55;;;;;;;5.16;100.00;102319.13;4907858;29;20549;-81
2023/12/19 01:25:17;;;;;;;37.05;20.98;;;;;;;5.16;100.00;102316.47;4892559;29;20417;-82
2023/12/19 01:27:43;;;;;;;37.35;20.42;;;;;;;5.17;100.00;102309.34;4887739;29;20051;-81
2023/12/19 01:30:08;;;;;;;38.58;19.98;;;;;;;5.17;100.00;102322.66;4906258;29;20127;-81
2023/12/19 01:32:34;;;;;;;38.30;21.48;;;;;;;5.16;100.00;102313.81;4901071;29;20486;-81
2023/12/19 01:34:59;;;;;;;37.80;19.38;;;;;;;5.16;100.00;102308.47;4913845;29;20020;-81
2023/12/19 01:37:24;;;;;;;37.45;21.58;;;;;;;5.16;100.00;102319.13;4903178;29;20028;-81
2023/12/19 01:39:49;;;;;;;39.67;21.30;;;;;;;5.16;100.00;102321.78;4909790;29;20036;-80
2023/12/19 01:42:15;;;;;;;36.83;18.98;;;;;;;5.17;100.00;102323.56;4909895;29;20595;-80
2023/12/19 01:44:40;;;;;;;37.25;19.98;;;;;;;5.21;100.00;102327.00;4908406;29;20060;-81
2023/12/19 01:47:05;;;;;;;41.45;21.00;;;;;;;5.21;100.00;102311.91;4892589;29;20024;-81
2023/12/19 01:49:31;;;;;;;38.88;21.05;;;;;;;5.24;100.00;102317.16;4890738;29;20029;-80
2023/12/19 01:51:57;;;;;;;39.92;21.55;;;;;;;5.24;100.00;102313.59;4885185;29;20126;-80
2023/12/19 01:54:23;;;;;;;40.35;21.00;;;;;;;5.24;100.00;102322.47;4884846;29;20043;-80
2023/12/19 01:56:48;;;;;;;35.65;19.48;;;;;;;5.22;100.00;102302.97;4905988;29;20100;-81
2023/12/19 01:59:14;;;;;;;41.33;20.65;;;;;;;5.23;100.00;102310.06;4888764;29;20048;-82
2023/12/19 02:01:40;;;;;;;36.20;20.23;;;;;;;5.22;100.00;102300.31;4914559;29;20020;-81
2023/12/19 02:04:08;;;;;;;37.70;21.45;;;;;;;5.23;100.00;102299.41;4908284;29;20035;-81
2023/12/19 02:06:34;;;;;;;35.78;19.98;;;;;;;5.24;100.00;102305.59;4897117;29;20024;-81
2023/12/19 02:09:01;;;;;;;37.30;19.75;;;;;;;5.23;100.00;102302.06;4902711;29;20031;-81
2023/12/19 02:11:29;;;;;;;34.53;19.85;;;;;;;5.24;100.00;102295.81;4909446;29;20073;-81
2023/12/19 02:13:56;;;;;;;36.63;20.08;;;;;;;5.24;100.00;102294.94;4886170;29;20044;-81
2023/12/19 02:16:22;;;;;;;38.80;19.80;;;;;;;5.25;100.00;102294.88;4901819;29;20110;-81
2023/12/19 02:19:00;;;;;;;41.13;19.95;;;;;;;5.26;100.00;102282.44;4907417;29;20055;-81
2023/12/19 02:21:25;;;;;;;36.92;20.77;;;;;;;5.27;100.00;102275.31;4895665;29;20019;-80
2023/12/19 02:23:50;;;;;;;36.72;19.63;;;;;;;5.28;100.00;102275.28;4908646;29;20032;-81
2023/12/19 02:26:16;;;;;;;33.40;18.08;;;;;;;5.29;100.00;102260.16;4891784;29;20031;-81
2023/12/19 02:28:41;;;;;;;36.40;19.45;;;;;;;5.29;100.00;102265.50;4905611;29;20046;-81
2023/12/19 02:31:06;;;;;;;37.38;19.02;;;;;;;5.27;100.00;102260.22;4890603;29;20167;-80
2023/12/19 02:33:32;;;;;;;37.40;19.45;;;;;;;5.27;100.00;102256.66;4907323;29;20100;-80
2023/12/19 02:35:57;;;;;;;39.78;20.23;;;;;;;5.30;100.00;102269.91;4909442;29;20036;-80
2023/12/19 02:38:22;;;;;;;34.15;18.27;;;;;;;5.29;100.00;102263.69;4891647;29;20445;-80
2023/12/19 02:40:48;;;;;;;34.97;20.63;;;;;;;5.30;100.00;102262.78;4909278;29;20028;-80
2023/12/19 02:43:13;;;;;;;32.03;19.13;;;;;;;5.33;100.00;102261.81;4894255;29;20140;-80
2023/12/19 02:45:38;;;;;;;31.60;16.38;;;;;;;5.33;100.00;102264.47;4903057;29;20027;-80
2023/12/19 02:48:04;;;;;;;38.70;19.33;;;;;;;5.34;100.00;102256.44;4899746;29;20035;-81
2023/12/19 02:50:29;;;;;;;32.65;18.30;;;;;;;5.34;100.00;102259.09;4881029;29;20053;-81
2023/12/19 02:52:56;;;;;;;35.70;19.02;;;;;;;5.34;100.00;102243.09;4899621;29;20165;-79
2023/12/19 02:55:21;;;;;;;35.83;18.27;;;;;;;5.35;100.00;102249.31;4904337;29;20040;-81
2023/12/19 02:57:46;;;;;;;38.63;20.00;;;;;;;5.36;100.00;102243.06;4890834;29;20045;-80
2023/12/19 03:00:12;;;;;;;33.92;17.20;;;;;;;5.34;100.00;102232.44;4893141;29;20019;-81
2023/12/19 03:02:37;;;;;;;29.85;16.00;;;;;;;5.32;100.00;102220.09;4917675;29;20024;-80
2023/12/19 03:05:03;;;;;;;33.58;17.15;;;;;;;5.31;100.00;102223.66;4894795;29;20024;-79
2023/12/19 03:07:28;;;;;;;33.50;18.35;;;;;;;5.33;100.00;102219.16;4889973;29;20052;-81
2023/12/19 03:09:53;;;;;;;31.92;17.63;;;;;;;5.32;100.00;102207.63;4903691;29;20247;-81
2023/12/19 03:12:19;;;;;;;33.13;16.92;;;;;;;5.34;100.00;102210.25;4892154;29;20028;-80
2023/12/19 03:14:44;;;;;;;31.33;15.85;;;;;;;5.31;100.00;102202.34;4892821;29;20077;-79
2023/12/19 03:17:09;;;;;;;31.92;18.00;;;;;;;5.32;100.00;102201.44;4916259;29;20024;-80
2023/12/19 03:19:36;;;;;;;31.90;17.65;;;;;;;5.29;100.00;102197.06;4907168;29;20473;-80
2023/12/19 03:22:02;;;;;;;32.08;16.98;;;;;;;5.28;100.00;102199.78;4909097;29;20036;-81
2023/12/19 03:24:28;;;;;;;32.72;18.73;;;;;;;5.29;100.00;102196.19;4906667;29;20036;-81
2023/12/19 03:26:54;;;;;;;33.00;17.90;;;;;;;5.30;100.00;102189.91;4913068;29;20448;-81
2023/12/19 03:29:19;;;;;;;33.97;16.48;;;;;;;5.31;100.00;102183.69;4911779;29;20028;-81
2023/12/19 03:31:44;;;;;;;32.13;17.77;;;;;;;5.31;100.00;102171.22;4890584;29;20020;-80
2023/12/19 03:34:10;;;;;;;29.73;16.17;;;;;;;5.31;100.00;102163.22;4910042;29;20024;-80
2023/12/19 03:36:35;;;;;;;31.60;17.67;;;;;;;5.31;100.00;102146.34;4889269;29;20021;-78
2023/12/19 03:39:00;;;;;;;31.52;15.90;;;;;;;5.31;100.00;102149.03;4886891;29;20453;-80
2023/12/19 03:41:26;;;;;;;31.02;16.48;;;;;;;5.30;100.00;102149.94;4904734;29;20028;-81
2023/12/19 03:43:51;;;;;;;31.23;17.23;;;;;;;5.29;100.00;102132.22;4915049;29;20024;-81
2023/12/19 03:46:17;;;;;;;33.53;18.52;;;;;;;5.29;100.00;102137.56;4896750;29;20160;-81
2023/12/19 03:48:44;;;;;;;29.77;17.15;;;;;;;5.28;100.00;102133.13;4904954;29;20016;-80
2023/12/19 03:51:10;;;;;;;32.13;16.45;;;;;;;5.30;100.00;102133.94;4885128;29;20035;-81
2023/12/19 03:53:36;;;;;;;33.92;17.90;;;;;;;5.31;100.00;102133.03;4887688;29;20032;-80
2023/12/19 03:56:01;;;;;;;34.70;18.42;;;;;;;5.30;100.00;102133.94;4897770;29;20041;-81
2023/12/19 03:58:26;;;;;;;33.80;18.13;;;;;;;5.30;100.00;102128.59;4913284;29;20032;-81
2023/12/19 04:00:51;;;;;;;33.08;18.73;;;;;;;5.30;100.00;102129.50;4905560;29;20029;-79
2023/12/19 04:03:17;;;;;;;33.10;19.08;;;;;;;5.32;100.00;102126.78;4891025;29;20016;-80
2023/12/19 04:05:42;;;;;;;38.00;20.35;;;;;;;5.33;100.00;102123.19;4898881;29;20123;-81
2023/12/19 04:08:07;;;;;;;36.17;19.98;;;;;;;5.33;100.00;102116.06;4905172;29;20108;-80
2023/12/19 04:10:33;;;;;;;37.67;20.08;;;;;;;5.35;100.00;102113.38;4908397;29;20038;-80
2023/12/19 04:12:58;;;;;;;37.25;22.60;;;;;;;5.35;100.00;102124.03;4896813;29;20024;-80
2023/12/19 04:15:24;;;;;;;36.33;20.75;;;;;;;5.35;100.00;102116.88;4900170;29;20686;-79
2023/12/19 04:17:49;;;;;;;39.25;21.98;;;;;;;5.36;100.00;102115.97;4886037;29;20252;-85
2023/12/19 04:20:14;;;;;;;36.42;22.35;;;;;;;5.37;100.00;102106.19;4899388;29;20028;-85
2023/12/19 04:22:41;;;;;;;38.08;22.95;;;;;;;5.38;100.00;102121.25;4874767;29;20064;-84
2023/12/19 04:25:07;;;;;;;38.70;22.40;;;;;;;5.41;100.00;102099.84;4896776;29;20520;-85
2023/12/19 04:27:32;;;;;;;40.55;22.48;;;;;;;5.41;100.00;102086.50;4876299;29;20050;-85
2023/12/19 04:29:57;;;;;;;42.63;23.98;;;;;;;5.44;100.00;102075.75;4882354;29;20028;-84
2023/12/19 04:32:23;;;;;;;39.33;22.20;;;;;;;5.44;100.00;102075.75;4881033;29;20028;-86
2023/12/19 04:34:48;;;;;;;37.85;20.23;;;;;;;5.45;100.00;102074.81;4879902;29;20024;-85
2023/12/19 04:37:14;;;;;;;42.60;24.25;;;;;;;5.47;100.00;102059.63;4882029;29;20506;-85
2023/12/19 04:39:39;;;;;;;38.05;22.25;;;;;;;5.49;100.00;102054.25;4881656;29;20452;-85
2023/12/19 04:42:07;;;;;;;46.33;22.00;;;;;;;5.50;100.00;102038.19;4881384;29;20081;-85
2023/12/19 04:44:36;;;;;;;39.35;24.00;;;;;;;5.50;100.00;102038.19;4882907;29;20061;-85
2023/12/19 04:47:02;;;;;;;44.00;23.55;;;;;;;5.52;100.00;102049.72;4876346;29;20074;-84
2023/12/19 04:49:27;;;;;;;38.53;23.13;;;;;;;5.53;100.00;102038.09;4899584;29;20453;-84
2023/12/19 04:51:52;;;;;;;38.08;22.13;;;;;;;5.56;100.00;102035.34;4902870;29;20119;-85
2023/12/19 04:54:18;;;;;;;38.25;23.48;;;;;;;5.58;100.00;102021.97;4881006;29;20610;-85
2023/12/19 04:56:43;;;;;;;37.00;23.33;;;;;;;5.61;100.00;102027.19;4879412;29;20056;-85
2023/12/19 04:59:08;;;;;;;37.25;23.38;;;;;;;5.63;100.00;102025.34;4907096;29;20123;-87
2023/12/19 05:01:34;;;;;;;40.38;22.80;;;;;;;5.64;100.00;102023.53;4894852;29;20497;-86
2023/12/19 05:03:59;;;;;;;35.65;21.92;;;;;;;5.65;100.00;102011.94;4893786;29;20036;-85
2023/12/19 05:06:25;;;;;;;35.97;21.02;;;;;;;5.65;100.00;102007.50;4900604;29;20120;-86
2023/12/19 05:08:50;;;;;;;39.00;21.80;;;;;;;5.69;100.00;102029.59;4882728;29;20034;-85
2023/12/19 05:11:16;;;;;;;41.15;22.38;;;;;;;5.69;100.00;102026.94;4884196;29;20073;-85
2023/12/19 05:13:41;;;;;;;36.58;21.80;;;;;;;5.71;100.00;102022.41;4905489;29;20390;-84
2023/12/19 05:16:15;;;;;;;36.45;21.08;;;;;;;5.73;100.00;102025.91;4879912;29;20817;-85
2023/12/19 05:18:41;;;;;;;38.17;21.23;;;;;;;5.73;100.00;102024.09;4876451;29;20071;-85
2023/12/19 05:21:07;;;;;;;40.33;23.95;;;;;;;5.76;100.00;102036.47;4900122;29;20031;-84
2023/12/19 05:23:35;;;;;;;35.72;20.38;;;;;;;5.78;100.00;102037.28;4876629;29;20727;-85
2023/12/19 05:26:00;;;;;;;36.70;20.55;;;;;;;5.78;100.00;102030.16;4884897;29;20056;-84
2023/12/19 05:28:25;;;;;;;36.58;22.02;;;;;;;5.80;100.00;102016.78;4900954;29;20067;-79
2023/12/19 05:30:51;;;;;;;37.47;21.13;;;;;;;5.82;100.00;102022.91;4887793;29;20087;-80
2023/12/19 05:33:16;;;;;;;39.20;22.25;;;;;;;5.83;100.00;102024.66;4892689;29;20032;-78
2023/12/19 05:35:41;;;;;;;35.80;21.02;;;;;;;5.83;100.00;102016.66;4886938;29;20029;-78
2023/12/19 05:38:07;;;;;;;37.08;21.58;;;;;;;5.86;100.00;102010.34;4897532;29;20041;-80
2023/12/19 05:40:32;;;;;;;38.75;20.63;;;;;;;5.86;100.00;102016.56;4906443;29;20036;-78
2023/12/19 05:42:58;;;;;;;38.33;22.48;;;;;;;5.88;100.00;102013.84;4892667;29;20103;-79
2023/12/19 05:45:24;;;;;;;37.70;20.60;;;;;;;5.90;100.00;102006.63;4886034;29;20060;-78
2023/12/19 05:47:49;;;;;;;38.65;22.17;;;;;;;5.90;100.00;102004.84;4888007;29;20475;-79
2023/12/19 05:50:14;;;;;;;39.80;21.17;;;;;;;5.90;100.00;101996.84;4904790;29;20029;-78
2023/12/19 05:52:40;;;;;;;37.67;20.73;;;;;;;5.92;100.00;101981.66;4905903;29;20047;-78
2023/12/19 05:55:05;;;;;;;35.10;19.33;;;;;;;5.93;100.00;101987.88;4889412;29;20029;-81
2023/12/19 05:57:32;;;;;;;32.22;19.65;;;;;;;5.95;100.00;101973.53;4902656;29;20163;-79
2023/12/19 05:59:57;;;;;;;38.55;20.30;;;;;;;5.96;100.00;101979.75;4905658;29;20065;-78
2023/12/19 06:02:22;;;;;;;37.47;20.38;;;;;;;5.97;100.00;101980.63;4901633;29;20040;-78
2023/12/19 06:04:49;;;;;;;35.63;20.23;;;;;;;5.97;100.00;101977.94;4889816;29;20028;-78
2023/12/19 06:07:15;;;;;;;39.40;20.95;;;;;;;5.98;100.00;101982.41;4889937;29;20029;-78
2023/12/19 06:09:40;;;;;;;36.80;20.38;;;;;;;5.98;100.00;101966.38;4882878;29;20051;-78
2023/12/19 06:12:07;;;;;;;35.13;19.95;;;;;;;6.00;100.00;101977.88;4908363;29;20068;-80
2023/12/19 06:14:32;;;;;;;32.75;19.38;;;;;;;5.99;100.00;101968.13;4893524;29;20386;-79
2023/12/19 06:16:57;;;;;;;35.15;19.92;;;;;;;5.99;100.00;101968.13;4907395;29;20043;-78
2023/12/19 06:19:22;;;;;;;33.40;19.20;;;;;;;6.00;100.00;101980.53;4907140;29;20048;-78
2023/12/19 06:21:48;;;;;;;38.70;19.55;;;;;;;6.00;100.00;101972.53;4905837;29;20037;-78
2023/12/19 06:24:14;;;;;;;33.28;18.08;;;;;;;6.01;100.00;101969.81;4884942;29;20036;-78
2023/12/19 06:26:39;;;;;;;31.77;19.15;;;;;;;6.02;100.00;101968.00;4910203;29;20255;-80
2023/12/19 06:29:05;;;;;;;31.23;18.02;;;;;;;6.02;100.00;101968.88;4889991;29;20032;-78
2023/12/19 06:31:31;;;;;;;33.72;19.02;;;;;;;6.03;100.00;101964.41;4902133;29;20033;-79
2023/12/19 06:33:57;;;;;;;30.88;18.30;;;;;;;6.04;100.00;101968.81;4893918;29;20028;-79
2023/12/19 06:36:27;;;;;;;35.50;21.23;;;;;;;6.05;100.00;101967.91;4886230;29;20041;-78
2023/12/19 06:38:52;;;;;;;;;;;;;;;6.09;100.00;101956.16;4889540;29;20066;-78
2023/12/19 06:41:18;;;;;;;33.67;18.00;;;;;;;6.07;100.00;101952.69;4892542;29;19914;-79
2023/12/19 06:43:43;;;;;;;32.63;18.25;;;;;;;6.08;100.00;101957.97;4893137;29;20039;-79
2023/12/19 06:46:14;;;;;;;35.90;19.10;;;;;;;6.09;100.00;101953.50;4893284;29;20405;-77
2023/12/19 06:48:41;;;;;;;32.30;19.00;;;;;;;6.10;100.00;101955.25;4880279;29;20028;-80
2023/12/19 06:51:07;;;;;;;32.40;18.05;;;;;;;6.12;100.00;101969.44;4897546;29;20032;-79
2023/12/19 06:53:32;;;;;;;35.80;19.58;;;;;;;6.12;100.00;101953.41;4882212;29;20035;-80
2023/12/19 06:55:59;;;;;;;33.50;18.92;;;;;;;6.11;100.00;101962.34;4897103;29;20580;-80
2023/12/19 06:58:25;;;;;;;28.90;17.02;;;;;;;6.11;100.00;101959.69;4898031;29;20092;-81
2023/12/19 07:00:50;;;;;;;31.58;17.75;;;;;;;6.12;100.00;101953.41;4897261;29;20037;-79
2023/12/19 07:03:16;;;;;;;32.15;18.08;;;;;;;6.11;100.00;101947.19;4878577;29;20033;-80
2023/12/19 07:05:42;;;;;;;31.13;17.13;;;;;;;6.13;100.00;101947.13;4892113;29;20051;-80
2023/12/19 07:08:07;;;;;;;30.73;18.35;;;;;;;6.14;100.00;101951.56;4892589;29;20028;-80
2023/12/19 07:10:32;;;;;;;33.20;16.90;;;;;;;6.15;100.00;101936.41;4900387;29;20029;-80
2023/12/19 07:12:58;;;;;;;32.90;17.90;;;;;;;6.16;100.00;101938.16;4884437;29;20020;-80
2023/12/19 07:15:23;;;;;;;31.50;18.08;;;;;;;6.17;100.00;101942.56;4896329;29;20035;-79
2023/12/19 07:17:49;;;;;;;30.02;17.55;;;;;;;6.18;100.00;101939.84;4879852;29;20024;-81
2023/12/19 07:20:14;;;;;;;30.38;16.40;;;;;;;6.20;100.00;101947.78;4902253;29;20382;-80
2023/12/19 07:22:40;;;;;;;29.92;17.95;;;;;;;6.21;100.00;101930.81;4884715;29;20032;-79
2023/12/19 07:25:06;;;;;;;30.80;16.48;;;;;;;6.23;100.00;101935.19;4898896;29;20393;-80
2023/12/19 07:27:34;;;;;;;33.63;17.98;;;;;;;6.24;100.00;101925.41;4875745;29;20131;-80
2023/12/19 07:29:59;;;;;;;30.65;16.92;;;;;;;6.24;100.00;101928.94;4902312;29;20477;-80
2023/12/19 07:32:25;;;;;;;28.88;16.38;;;;;;;6.26;100.00;101923.53;4904538;29;20028;-80
2023/12/19 07:34:50;;;;;;;31.48;16.98;;;;;;;6.26;100.00;101918.19;4886335;29;20547;-79
2023/12/19 07:37:16;;;;;;;31.33;16.90;;;;;;;6.26;100.00;101927.06;4894976;29;20024;-79
2023/12/19 07:39:41;;;;;;;28.48;16.05;;;;;;;6.27;100.00;101930.63;4882780;29;20031;-80
2023/12/19 07:42:07;;;;;;;30.20;16.13;;;;;;;6.28;100.00;101930.56;4880848;29;20036;-80
2023/12/19 07:44:33;;;;;;;28.60;15.48;;;;;;;6.29;100.00;101921.59;4891540;29;20024;-80
2023/12/19 07:46:58;;;;;;;29.98;15.38;;;;;;;6.32;100.00;101933.09;4891968;29;20168;-80
2023/12/19 07:49:23;;;;;;;31.38;15.60;;;;;;;6.33;100.00;101929.50;4900918;29;20052;-81
2023/12/19 07:51:49;;;;;;;27.20;14.77;;;;;;;6.34;100.00;101928.56;4883234;29;20028;-80
2023/12/19 07:54:14;;;;;;;28.33;16.00;;;;;;;6.36;100.00;101929.41;4885024;29;20017;-80
2023/12/19 07:56:41;;;;;;;29.90;13.57;;;;;;;6.37;100.00;101912.41;4874759;29;20572;-80
2023/12/19 07:59:06;;;;;;;35.60;15.05;;;;;;;6.38;100.00;101912.34;4876852;29;20024;-81
2023/12/19 08:01:32;;;;;;;26.77;13.75;;;;;;;6.40;100.00;101909.63;4894704;29;20048;-80
2023/12/19 08:03:57;;;;;;;30.60;14.77;;;;;;;6.42;100.00;101913.13;4891769;29;20508;-81
2023/12/19 08:06:23;;;;;;;29.50;15.30;;;;;;;6.43;100.00;101906.88;4878451;29;20033;-80
2023/12/19 08:08:52;;;;;;;27.92;14.38;;;;;;;6.44;100.00;101911.25;4889959;29;20033;-80
2023/12/19 08:11:18;;;;;;;28.35;14.07;;;;;;;6.44;100.00;101890.78;4902392;29;20149;-80
2023/12/19 08:13:43;;;;;;;28.75;15.43;;;;;;;6.42;100.00;101900.63;4894761;29;20036;-81
2023/12/19 08:16:09;;;;;;;26.13;13.85;;;;;;;6.42;100.00;101913.13;4891010;29;20032;-80
2023/12/19 08:18:35;;;;;;;26.20;15.05;;;;;;;6.42;100.00;101902.44;4875045;29;20087;-81
2023/12/19 08:21:02;;;;;;;29.00;14.73;;;;;;;6.40;100.00;101914.97;4878840;29;20077;-80
2023/12/19 08:23:28;;;;;;;27.35;14.10;;;;;;;6.39;100.00;101907.91;4900150;29;20033;-80
2023/12/19 08:25:53;;;;;;;31.48;14.40;;;;;;;6.38;100.00;101904.34;4884346;29;20400;-79
2023/12/19 08:28:18;;;;;;;29.42;15.25;;;;;;;6.38;100.00;101892.81;4898353;29;20091;-80
2023/12/19 08:30:43;;;;;;;29.52;14.52;;;;;;;6.37;100.00;101893.72;4900117;29;20508;-81
2023/12/19 08:33:09;;;;;;;29.60;14.88;;;;;;;6.36;100.00;101887.53;4881396;29;20028;-80
2023/12/19 08:35:34;;;;;;;27.88;14.30;;;;;;;6.36;100.00;101890.19;4883963;29;20029;-80
2023/12/19 08:37:59;;;;;;;32.05;14.50;;;;;;;6.35;100.00;101914.28;4884486;29;20045;-81
2023/12/19 08:40:25;;;;;;;28.58;14.63;;;;;;;6.34;100.00;101899.19;4895730;29;20493;-80
2023/12/19 08:42:50;;;;;;;26.40;14.48;;;;;;;6.34;100.00;101899.19;4899771;29;20032;-79
2023/12/19 08:45:16;;;;;;;26.05;13.32;;;;;;;6.34;100.00;101896.53;4885653;29;20039;-81
2023/12/19 08:47:46;;;;;;;28.25;14.57;;;;;;;6.34;100.00;101900.09;4900908;29;20492;-80
2023/12/19 08:50:13;;;;;;;29.35;13.90;;;;;;;6.34;100.00;101900.09;4904778;29;20033;-79
2023/12/19 08:52:39;;;;;;;29.23;14.35;;;;;;;6.34;100.00;101886.72;4897933;29;20020;-81
2023/12/19 08:55:08;;;;;;;34.67;16.02;;;;;;;6.33;100.00;101894.81;4897365;29;20476;-80
2023/12/19 08:57:54;;;;;;;28.08;13.80;;;;;;;6.33;100.00;101886.78;4887438;29;20523;-80
2023/12/19 09:00:21;;;;;;;27.50;13.60;;;;;;;6.30;100.00;101877.97;4898340;29;20120;-80
2023/12/19 09:02:47;;;;;;;28.48;14.57;;;;;;;6.30;100.00;101882.44;4896216;29;20088;-80
2023/12/19 09:05:14;;;;;;;27.27;13.60;;;;;;;6.29;100.00;101878.88;4901202;29;20040;-81
2023/12/19 09:07:40;;;;;;;29.92;15.00;;;;;;;6.29;100.00;101881.53;4903294;29;20039;-81
2023/12/19 09:10:07;;;;;;;28.75;14.00;;;;;;;6.29;100.00;101876.22;4915144;29;20117;-80
2023/12/19 09:12:33;;;;;;;29.92;13.40;;;;;;;6.29;100.00;101873.53;4924949;29;20059;-79
2023/12/19 09:14:59;;;;;;;28.05;13.60;;;;;;;6.29;100.00;101883.34;4913963;29;20032;-80
2023/12/19 09:17:25;;;;;;;25.73;11.80;;;;;;;6.29;100.00;101872.69;4893065;29;20044;-79
2023/12/19 09:19:50;;;;;;;27.05;13.75;;;;;;;6.29;100.00;101864.66;4894181;29;20078;-79
2023/12/19 09:22:16;;;;;;;26.02;11.73;;;;;;;6.28;100.00;101860.25;4898395;29;20028;-81
2023/12/19 09:24:41;;;;;;;27.63;12.70;;;;;;;6.27;100.00;101862.06;4912411;29;20212;-82
2023/12/19 09:27:07;;;;;;;27.15;11.75;;;;;;;6.25;100.00;101847.03;4916886;29;20043;-81
2023/12/19 09:29:32;;;;;;;28.38;12.80;;;;;;;6.27;100.00;101863.88;4899682;29;20075;-81
2023/12/19 09:32:00;;;;;;;26.85;12.75;;;;;;;6.26;100.00;101867.47;4915368;29;20024;-80
2023/12/19 09:34:26;;;;;;;23.13;11.55;;;;;;;6.26;100.00;101848.78;4907462;29;20020;-81
2023/12/19 09:36:51;;;;;;;24.15;11.25;;;;;;;6.24;100.00;101859.50;4918225;29;20100;-79
2023/12/19 09:39:16;;;;;;;23.77;10.70;;;;;;;6.24;100.00;101851.50;4917949;29;20031;-80
2023/12/19 09:41:42;;;;;;;22.65;10.65;;;;;;;6.24;100.00;101851.50;4917265;29;20040;-80
2023/12/19 09:44:08;;;;;;;23.70;10.35;;;;;;;6.23;100.00;101849.75;4922695;29;20036;-80
2023/12/19 09:46:33;;;;;;;25.70;11.30;;;;;;;6.24;100.00;101837.31;4918005;29;20049;-79
2023/12/19 09:49:00;;;;;;;28.13;10.73;;;;;;;6.26;100.00;101827.41;4923320;29;20083;-81
2023/12/19 09:51:32;;;;;;;24.10;10.40;;;;;;;6.29;100.00;101843.31;4914366;29;20017;-79
2023/12/19 09:54:02;;;;;;;25.88;11.52;;;;;;;6.30;100.00;101829.03;4898960;29;20032;-79
2023/12/19 09:56:28;;;;;;;23.67;10.18;;;;;;;6.32;100.00;101828.97;4919345;29;20076;-79
2023/12/19 09:58:54;;;;;;;21.75;9.77;;;;;;;6.32;100.00;101832.50;4921966;29;20028;-79
2023/12/19 10:01:20;;;;;;;22.55;10.05;;;;;;;6.30;100.00;101813.03;4903105;29;20036;-79
2023/12/19 10:03:46;;;;;;;22.58;9.55;;;;;;;6.33;100.00;101817.38;4916103;29;20071;-80
2023/12/19 10:06:11;;;;;;;21.10;9.57;;;;;;;6.34;100.00;101809.31;4917348;29;20029;-80
2023/12/19 10:08:43;;;;;;;22.30;9.45;;;;;;;6.35;100.00;101811.03;4927584;24;20137;-72
2023/12/19 10:11:14;;;;;;;21.05;8.55;;;;;;;6.37;100.00;101813.63;4911444;29;20035;-72
2023/12/19 10:13:39;;;;;;;20.80;9.00;;;;;;;6.37;100.00;101800.28;4906390;29;20043;-72
2023/12/19 10:16:08;;;;;;;22.75;10.07;;;;;;;6.39;100.00;101819.78;4924224;29;20488;-72
2023/12/19 10:18:34;;;;;;;21.45;9.63;;;;;;;6.40;100.00;101813.50;4927314;29;20028;-72
2023/12/19 10:21:10;;;;;;;21.95;9.68;;;;;;;6.39;100.00;101809.13;4921892;29;20495;-72
2023/12/19 10:23:41;;;;;;;23.15;10.52;;;;;;;6.40;100.00;101809.06;4899959;29;20062;-72
2023/12/19 10:26:08;;;;;;;23.33;9.82;;;;;;;6.42;100.00;101800.97;4916799;29;20028;-70
2023/12/19 10:28:34;;;;;;;23.38;9.75;;;;;;;6.42;100.00;101795.63;4916116;29;20059;-70
2023/12/19 10:31:05;;;;;;;22.17;9.93;;;;;;;6.42;100.00;101784.97;4910828;29;20106;-70
2023/12/19 10:33:39;;;;;;;22.45;10.38;;;;;;;6.43;100.00;101776.88;4912572;29;20559;-70
2023/12/19 10:36:05;;;;;;;21.85;9.75;;;;;;;6.42;100.00;101764.44;4925396;29;20493;-70
2023/12/19 10:38:44;;;;;;;23.95;10.25;;;;;;;6.45;100.00;101771.47;4909420;29;20052;-70
2023/12/19 10:41:09;;;;;;;21.42;9.68;;;;;;;6.45;100.00;101769.66;4909529;29;20521;-70
2023/12/19 10:43:38;;;;;;;22.02;9.23;;;;;;;6.46;100.00;101754.53;4904003;29;20112;-70
2023/12/19 10:46:04;;;;;;;21.10;9.32;;;;;;;6.46;100.00;101763.41;4893014;29;20092;-69
2023/12/19 10:48:29;;;;;;;24.60;10.93;;;;;;;6.47;100.00;101758.91;4884871;29;20032;-70
2023/12/19 10:50:55;;;;;;;22.08;10.30;;;;;;;6.46;100.00;101755.38;4888268;29;20036;-70
2023/12/19 10:53:20;;;;;;;23.55;9.95;;;;;;;6.48;100.00;101752.66;4906347;29;20031;-70
2023/12/19 10:55:54;;;;;;;24.15;10.18;;;;;;;6.47;100.00;101738.44;4910381;29;20056;-72
2023/12/19 10:58:21;;;;;;;23.70;9.93;;;;;;;6.48;100.00;101721.47;4902217;29;20124;-72
2023/12/19 11:00:50;;;;;;;22.30;9.75;;;;;;;6.50;100.00;101715.19;4889705;29;20095;-72
2023/12/19 11:03:33;;;;;;;20.52;8.70;;;;;;;6.52;100.00;101700.84;4903104;29;20139;-72